Time;durP1;ratioP1;P1;durP2;ratioP2;P2;SDS_P1;SDS_P2;PMS_P1;PMS_P2;Temp;Humidity;BMP_temperature;BMP_pressure;BME280_temperature;BME280_humidity;BME280_pressure;Samples;Min_cycle;Max_cycle;Signal;HPM_P1;HPM_P2
2023/07/22 00:01:21;;;;;;;8.80;4.13;;;13.60;99.90;;;;;;5017855;28;20058;-66
2023/07/22 00:03:46;;;;;;;7.45;3.53;;;13.50;99.90;;;;;;5022974;28;20044;-66
2023/07/22 00:06:12;;;;;;;9.45;3.50;;;13.30;99.90;;;;;;5026918;28;20029;-64
2023/07/22 00:08:38;;;;;;;5.45;3.33;;;13.30;99.90;;;;;;4998785;28;20111;-65
2023/07/22 00:11:05;;;;;;;6.30;3.97;;;13.40;99.90;;;;;;5014191;28;20428;-65
2023/07/22 00:13:31;;;;;;;9.07;3.95;;;13.40;99.90;;;;;;5020836;28;20029;-66
2023/07/22 00:15:59;;;;;;;10.30;4.68;;;13.40;99.90;;;;;;5017548;28;20053;-66
2023/07/22 00:18:25;;;;;;;7.57;4.25;;;13.40;99.90;;;;;;5026797;28;20056;-63
2023/07/22 00:20:50;;;;;;;7.15;4.20;;;13.40;99.90;;;;;;5025277;28;20041;-66
2023/07/22 00:23:17;;;;;;;8.48;3.55;;;13.30;99.90;;;;;;5025133;28;20087;-65
2023/07/22 00:25:42;;;;;;;7.18;4.25;;;13.20;99.90;;;;;;5016444;28;20107;-66
2023/07/22 00:28:08;;;;;;;8.18;4.15;;;13.30;99.90;;;;;;5019415;28;20451;-66
2023/07/22 00:30:34;;;;;;;7.50;4.03;;;13.30;99.90;;;;;;5016172;28;20030;-65
2023/07/22 00:33:00;;;;;;;6.35;3.90;;;13.30;99.90;;;;;;5025044;28;20033;-66
2023/07/22 00:35:26;;;;;;;7.15;4.07;;;13.10;99.90;;;;;;5026705;28;20073;-63
2023/07/22 00:37:52;;;;;;;8.35;3.70;;;12.90;99.90;;;;;;5017594;28;20068;-66
2023/07/22 00:40:18;;;;;;;8.02;4.25;;;13.00;99.90;;;;;;5014059;28;20524;-65
2023/07/22 00:42:43;;;;;;;8.65;3.92;;;12.90;99.90;;;;;;5015306;28;20489;-66
2023/07/22 00:45:09;;;;;;;9.68;3.85;;;12.80;99.90;;;;;;5017757;28;20037;-68
2023/07/22 00:47:35;;;;;;;6.85;4.10;;;12.70;99.90;;;;;;5018751;28;20037;-66
2023/07/22 00:50:03;;;;;;;11.45;4.40;;;12.70;99.90;;;;;;5027359;28;20044;-66
2023/07/22 00:52:29;;;;;;;9.80;4.05;;;12.70;99.90;;;;;;5020879;28;20064;-64
2023/07/22 00:54:55;;;;;;;8.68;4.05;;;12.70;99.90;;;;;;5019917;28;20117;-65
2023/07/22 00:57:21;;;;;;;6.82;4.35;;;12.60;99.90;;;;;;5022603;28;20025;-66
2023/07/22 00:59:47;;;;;;;7.18;4.00;;;12.60;99.90;;;;;;5012412;28;20662;-66
2023/07/22 01:02:13;;;;;;;7.43;3.70;;;12.60;99.90;;;;;;5020709;28;20033;-66
2023/07/22 01:04:39;;;;;;;7.38;3.90;;;12.70;99.90;;;;;;5017642;28;20037;-65
2023/07/22 01:07:09;;;;;;;9.25;4.32;;;12.70;99.90;;;;;;5026136;28;20021;-66
2023/07/22 01:09:43;;;;;;;8.15;4.53;;;12.80;99.90;;;;;;5025186;28;20485;-66
2023/07/22 01:12:09;;;;;;;10.95;4.35;;;12.80;99.90;;;;;;5015526;28;20061;-66
2023/07/22 01:14:37;;;;;;;8.88;4.30;;;12.80;99.90;;;;;;5018086;28;20030;-67
2023/07/22 01:17:09;;;;;;;7.60;4.20;;;12.80;99.90;;;;;;5024164;28;20056;-66
2023/07/22 01:19:35;;;;;;;9.05;4.22;;;12.80;99.90;;;;;;5015256;28;20045;-66
2023/07/22 01:22:03;;;;;;;6.25;3.90;;;12.90;99.90;;;;;;5017881;28;20026;-66
2023/07/22 01:24:29;;;;;;;7.57;4.28;;;13.00;99.90;;;;;;5023806;28;20112;-64
2023/07/22 01:26:56;;;;;;;5.93;3.67;;;13.10;99.90;;;;;;5018751;28;20041;-66
2023/07/22 01:29:22;;;;;;;7.35;3.67;;;13.20;99.90;;;;;;5014932;28;20054;-66
2023/07/22 01:31:51;;;;;;;7.57;4.10;;;13.20;99.90;;;;;;5017726;28;20033;-66
2023/07/22 01:34:17;;;;;;;7.47;3.63;;;13.30;99.90;;;;;;5016382;28;20034;-66
2023/07/22 01:36:44;;;;;;;9.60;4.22;;;13.20;99.90;;;;;;5014646;28;20034;-65
2023/07/22 01:39:13;;;;;;;6.50;4.03;;;13.10;99.90;;;;;;5024089;28;20037;-66
2023/07/22 01:41:39;;;;;;;6.57;4.00;;;12.90;99.90;;;;;;5016130;28;20075;-66
2023/07/22 01:44:05;;;;;;;8.60;3.95;;;12.70;99.90;;;;;;5026583;28;20025;-66
2023/07/22 01:46:30;;;;;;;7.88;4.38;;;12.60;99.90;;;;;;5014991;28;20033;-63
2023/07/22 01:48:56;;;;;;;9.40;4.28;;;12.70;99.90;;;;;;5016364;28;20470;-65
2023/07/22 01:51:22;;;;;;;8.30;4.57;;;12.80;99.90;;;;;;5018052;28;22046;-64
2023/07/22 01:53:49;;;;;;;9.25;4.30;;;12.80;99.90;;;;;;5014814;28;20041;-66
2023/07/22 01:56:16;;;;;;;7.93;4.22;;;12.90;99.90;;;;;;5016376;28;20389;-67
2023/07/22 01:58:42;;;;;;;10.20;4.68;;;12.90;99.90;;;;;;5018092;28;20090;-66
2023/07/22 02:01:07;;;;;;;10.25;4.65;;;12.90;99.90;;;;;;5019150;28;20359;-66
2023/07/22 02:03:33;;;;;;;8.75;4.63;;;13.10;99.90;;;;;;5021108;28;20515;-63
2023/07/22 02:06:05;;;;;;;7.75;4.13;;;13.10;99.90;;;;;;5015829;28;20386;-66
2023/07/22 02:08:31;;;;;;;12.00;4.47;;;13.20;99.90;;;;;;5018508;28;20029;-63
2023/07/22 02:11:03;;;;;;;9.10;4.57;;;13.20;99.90;;;;;;5017771;28;20033;-65
2023/07/22 02:13:30;;;;;;;7.97;4.22;;;13.30;99.90;;;;;;5023659;28;20065;-66
2023/07/22 02:15:55;;;;;;;7.03;4.03;;;13.20;99.90;;;;;;5017456;28;20041;-66
2023/07/22 02:18:21;;;;;;;8.13;4.78;;;13.30;99.90;;;;;;5026291;28;20054;-66
2023/07/22 02:20:47;;;;;;;10.98;4.82;;;13.30;99.90;;;;;;5023664;28;20735;-66
2023/07/22 02:23:12;;;;;;;8.43;4.53;;;13.30;99.90;;;;;;5016357;28;20061;-66
2023/07/22 02:25:38;;;;;;;6.95;4.00;;;13.30;99.90;;;;;;5018511;28;20443;-66
2023/07/22 02:28:04;;;;;;;7.10;4.43;;;13.30;99.90;;;;;;5024861;28;20091;-66
2023/07/22 02:30:29;;;;;;;7.05;4.18;;;13.30;99.90;;;;;;5021237;28;20041;-65
2023/07/22 02:32:55;;;;;;;8.35;4.43;;;13.30;99.90;;;;;;5018464;28;20041;-65
2023/07/22 02:35:21;;;;;;;9.38;4.38;;;13.30;99.90;;;;;;5013052;28;20054;-66
2023/07/22 02:37:47;;;;;;;6.47;4.03;;;13.30;99.90;;;;;;5023072;28;20029;-66
2023/07/22 02:40:12;;;;;;;8.00;4.03;;;13.20;99.90;;;;;;5018927;28;20030;-66
2023/07/22 02:42:39;;;;;;;6.20;3.65;;;13.00;99.90;;;;;;5027199;28;20033;-65
2023/07/22 02:45:07;;;;;;;9.10;4.40;;;12.80;99.90;;;;;;5023012;28;20477;-66
2023/07/22 02:47:34;;;;;;;8.05;4.20;;;12.70;99.90;;;;;;5028581;28;20536;-63
2023/07/22 02:50:00;;;;;;;14.32;3.95;;;12.80;99.90;;;;;;5026485;28;20091;-66
2023/07/22 02:52:26;;;;;;;7.38;4.10;;;12.70;99.90;;;;;;5024410;28;20025;-65
2023/07/22 02:55:12;;;;;;;7.70;3.85;;;12.60;99.90;;;;;;5013542;28;20547;-66
2023/07/22 02:57:39;;;;;;;8.65;4.40;;;12.50;99.90;;;;;;5023744;28;20070;-65
2023/07/22 03:00:11;;;;;;;7.53;3.90;;;12.40;99.90;;;;;;5022659;28;20033;-65
2023/07/22 03:02:38;;;;;;;8.38;3.67;;;12.30;99.90;;;;;;5027885;28;20038;-63
2023/07/22 03:05:07;;;;;;;9.98;4.32;;;12.20;99.90;;;;;;5020033;28;20042;-65
2023/07/22 03:07:37;;;;;;;8.93;4.68;;;12.20;99.90;;;;;;5025984;28;20573;-63
2023/07/22 03:10:04;;;;;;;8.53;4.03;;;12.20;99.90;;;;;;5025965;28;20030;-65
2023/07/22 03:12:29;;;;;;;8.25;3.88;;;12.20;99.90;;;;;;5002054;28;20280;-65
2023/07/22 03:14:55;;;;;;;8.50;4.30;;;12.20;99.90;;;;;;5029377;28;20076;-65
2023/07/22 03:17:21;;;;;;;8.25;4.30;;;12.20;99.90;;;;;;5017195;28;20050;-65
2023/07/22 03:19:47;;;;;;;9.95;4.38;;;12.20;99.90;;;;;;5022733;28;20038;-65
2023/07/22 03:22:16;;;;;;;8.07;4.10;;;12.10;99.90;;;;;;5026071;28;20037;-64
2023/07/22 03:24:42;;;;;;;7.70;4.53;;;12.00;99.90;;;;;;5024059;28;20030;-66
2023/07/22 03:27:07;;;;;;;9.68;4.05;;;12.00;99.90;;;;;;5028655;28;20108;-63
2023/07/22 03:29:33;;;;;;;8.68;4.57;;;12.00;99.90;;;;;;5028711;28;20497;-65
2023/07/22 03:31:59;;;;;;;8.00;3.83;;;12.00;99.90;;;;;;5024922;28;20025;-65
2023/07/22 03:34:28;;;;;;;8.77;4.13;;;12.00;99.90;;;;;;5017645;28;20038;-64
2023/07/22 03:36:54;;;;;;;6.45;3.90;;;12.00;99.90;;;;;;5020930;28;20064;-65
2023/07/22 03:39:20;;;;;;;7.20;3.97;;;11.90;99.90;;;;;;5026696;28;20504;-65
2023/07/22 03:41:46;;;;;;;7.65;3.80;;;11.90;99.90;;;;;;5019166;28;20030;-65
2023/07/22 03:44:12;;;;;;;10.25;3.63;;;11.90;99.90;;;;;;5014178;28;20115;-65
2023/07/22 03:46:37;;;;;;;9.15;3.88;;;11.90;99.90;;;;;;5016147;28;20030;-63
2023/07/22 03:49:04;;;;;;;5.13;3.63;;;11.80;99.90;;;;;;5016108;28;20034;-65
2023/07/22 03:51:30;;;;;;;8.48;3.72;;;11.80;99.90;;;;;;5027367;28;20072;-65
2023/07/22 03:53:55;;;;;;;5.85;3.30;;;11.80;99.90;;;;;;5020095;28;20060;-65
2023/07/22 03:56:23;;;;;;;7.97;3.80;;;11.80;99.90;;;;;;5011704;28;20045;-65
2023/07/22 03:58:49;;;;;;;6.88;3.35;;;11.80;99.90;;;;;;5014649;28;20041;-65
2023/07/22 04:01:15;;;;;;;5.53;3.47;;;11.80;99.90;;;;;;5014703;28;20060;-65
2023/07/22 04:03:40;;;;;;;6.35;3.72;;;11.80;99.90;;;;;;5017720;28;20058;-62
2023/07/22 04:06:06;;;;;;;7.70;3.85;;;11.80;99.90;;;;;;5020313;28;20045;-65
2023/07/22 04:08:32;;;;;;;6.47;3.72;;;11.80;99.90;;;;;;5018920;28;20126;-65
2023/07/22 04:10:58;;;;;;;7.53;4.13;;;11.80;99.90;;;;;;5018593;28;20026;-66
2023/07/22 04:13:25;;;;;;;8.60;4.20;;;11.90;99.90;;;;;;5026945;28;20116;-64
2023/07/22 04:15:51;;;;;;;6.95;3.75;;;11.90;99.90;;;;;;5018468;28;20073;-65
2023/07/22 04:18:17;;;;;;;6.25;3.30;;;11.90;99.90;;;;;;5012727;28;20073;-63
2023/07/22 04:20:43;;;;;;;7.20;4.28;;;11.70;99.90;;;;;;5020208;28;20129;-64
2023/07/22 04:23:09;;;;;;;7.57;3.83;;;11.60;99.90;;;;;;5021539;28;20033;-65
2023/07/22 04:25:42;;;;;;;8.90;4.28;;;11.60;99.90;;;;;;5028243;28;20044;-65
2023/07/22 04:28:08;;;;;;;8.57;3.70;;;11.60;99.90;;;;;;5024682;28;20493;-65
2023/07/22 04:30:34;;;;;;;5.50;3.58;;;11.60;99.90;;;;;;5023511;28;20036;-65
2023/07/22 04:33:00;;;;;;;6.43;3.70;;;11.60;99.90;;;;;;5022467;28;20033;-65
2023/07/22 04:35:25;;;;;;;6.95;3.80;;;11.70;99.90;;;;;;5026653;28;20095;-65
2023/07/22 04:37:51;;;;;;;5.53;3.47;;;11.80;99.90;;;;;;5021966;28;20033;-65
2023/07/22 04:40:18;;;;;;;6.90;3.55;;;12.00;99.90;;;;;;5027712;28;20033;-65
2023/07/22 04:42:44;;;;;;;7.32;3.83;;;12.10;99.90;;;;;;5016964;28;20030;-63
2023/07/22 04:45:11;;;;;;;5.72;3.38;;;12.30;99.90;;;;;;5019856;28;20075;-65
2023/07/22 04:47:38;;;;;;;6.43;3.60;;;12.30;99.90;;;;;;5021050;28;20084;-65
2023/07/22 04:50:09;;;;;;;8.20;3.92;;;12.50;99.90;;;;;;5011164;28;20044;-65
2023/07/22 04:52:35;;;;;;;8.00;3.45;;;12.50;99.90;;;;;;5019321;28;20112;-63
2023/07/22 04:55:02;;;;;;;8.07;3.30;;;12.50;99.90;;;;;;5024093;28;20703;-65
2023/07/22 04:57:27;;;;;;;5.72;3.33;;;12.40;99.90;;;;;;5025742;28;20047;-65
2023/07/22 04:59:53;;;;;;;5.88;3.47;;;12.50;99.90;;;;;;5020901;28;20109;-65
2023/07/22 05:02:19;;;;;;;6.50;3.72;;;12.50;99.90;;;;;;5025725;28;20041;-65
2023/07/22 05:04:44;;;;;;;4.57;3.10;;;12.70;99.90;;;;;;5027013;28;20033;-63
2023/07/22 05:07:10;;;;;;;6.15;3.47;;;12.80;99.90;;;;;;5024095;28;20083;-65
2023/07/22 05:09:36;;;;;;;7.97;3.63;;;12.80;99.90;;;;;;5019806;28;20033;-65
2023/07/22 05:12:02;;;;;;;9.77;3.75;;;12.80;99.90;;;;;;5024261;28;20036;-65
2023/07/22 05:14:28;;;;;;;8.35;3.90;;;12.90;99.90;;;;;;5027516;28;20033;-65
2023/07/22 05:16:53;;;;;;;6.60;3.78;;;12.90;99.90;;;;;;5005507;28;20137;-65
2023/07/22 05:19:20;;;;;;;7.20;4.03;;;13.00;99.90;;;;;;5021212;28;21894;-65
2023/07/22 05:21:46;;;;;;;6.60;3.92;;;13.10;99.90;;;;;;5014667;28;20030;-63
2023/07/22 05:24:12;;;;;;;6.55;4.00;;;13.30;99.90;;;;;;5018996;28;20083;-66
2023/07/22 05:26:38;;;;;;;7.45;3.90;;;13.50;99.90;;;;;;5027057;28;20049;-65
2023/07/22 05:29:03;;;;;;;9.93;3.85;;;13.60;99.90;;;;;;5026722;28;20542;-65
2023/07/22 05:31:29;;;;;;;10.88;3.63;;;13.70;99.90;;;;;;5016733;28;20545;-66
2023/07/22 05:33:54;;;;;;;6.82;3.97;;;13.70;99.90;;;;;;5025614;28;20067;-65
2023/07/22 05:36:21;;;;;;;6.75;3.80;;;13.80;99.90;;;;;;5027347;28;20079;-65
2023/07/22 05:38:46;;;;;;;6.68;3.95;;;14.00;99.90;;;;;;5022063;28;20466;-63
2023/07/22 05:41:12;;;;;;;6.43;4.22;;;14.20;99.90;;;;;;5023036;28;20037;-65
2023/07/22 05:43:38;;;;;;;10.68;4.30;;;14.20;99.90;;;;;;5019555;28;20065;-65
2023/07/22 05:46:03;;;;;;;6.68;3.72;;;14.30;99.90;;;;;;5009242;28;20029;-65
2023/07/22 05:48:29;;;;;;;6.78;3.92;;;14.50;99.90;;;;;;5024101;28;20092;-66
2023/07/22 05:50:55;;;;;;;6.18;3.78;;;14.60;99.90;;;;;;5019447;28;20060;-65
2023/07/22 05:53:20;;;;;;;9.75;4.43;;;14.60;99.90;;;;;;5018910;28;20117;-67
2023/07/22 05:55:46;;;;;;;8.27;4.20;;;14.70;99.90;;;;;;5015972;28;20069;-63
2023/07/22 05:58:18;;;;;;;8.10;3.90;;;14.90;99.90;;;;;;5027737;28;20033;-65
2023/07/22 06:00:45;;;;;;;6.85;4.20;;;14.90;99.90;;;;;;5026309;28;20083;-63
2023/07/22 06:03:11;;;;;;;8.13;3.90;;;15.10;99.90;;;;;;5019020;28;20030;-65
2023/07/22 06:05:37;;;;;;;12.68;4.00;;;15.20;99.90;;;;;;5015363;28;21654;-66
2023/07/22 06:08:03;;;;;;;7.22;3.70;;;15.30;99.90;;;;;;5018220;28;20033;-65
2023/07/22 06:10:30;;;;;;;7.07;3.85;;;15.50;99.90;;;;;;5020353;28;20036;-66
2023/07/22 06:12:55;;;;;;;9.25;3.72;;;15.50;99.90;;;;;;5022734;28;20068;-66
2023/07/22 06:15:21;;;;;;;6.10;4.07;;;15.60;99.90;;;;;;5019248;28;20156;-65
2023/07/22 06:17:47;;;;;;;7.85;4.38;;;15.60;99.90;;;;;;5023234;28;20049;-63
2023/07/22 06:20:13;;;;;;;6.88;4.22;;;15.70;99.90;;;;;;5018617;28;20044;-66
2023/07/22 06:22:39;;;;;;;7.97;4.50;;;15.70;99.90;;;;;;5014773;28;20033;-66
2023/07/22 06:25:06;;;;;;;12.38;4.55;;;15.90;99.90;;;;;;5015336;28;20060;-66
2023/07/22 06:27:31;;;;;;;9.45;3.78;;;16.00;99.90;;;;;;5016479;28;20500;-65
2023/07/22 06:29:58;;;;;;;7.43;4.05;;;16.10;99.90;;;;;;5007519;28;20124;-65
2023/07/22 06:32:24;;;;;;;7.68;4.07;;;16.30;99.90;;;;;;5009850;28;20037;-66
2023/07/22 06:34:49;;;;;;;12.07;3.38;;;16.40;99.90;;;;;;5013116;28;20042;-63
2023/07/22 06:37:15;;;;;;;8.55;3.38;;;16.60;99.90;;;;;;5021818;28;20076;-66
2023/07/22 06:39:40;;;;;;;6.20;3.08;;;16.70;99.90;;;;;;5017998;28;20026;-66
2023/07/22 06:42:06;;;;;;;6.40;3.08;;;16.70;99.90;;;;;;5024961;28;20029;-62
2023/07/22 06:44:32;;;;;;;6.90;3.83;;;16.80;99.90;;;;;;5012401;28;20033;-62
2023/07/22 06:46:58;;;;;;;6.63;3.10;;;17.00;99.90;;;;;;5018994;28;20105;-64
2023/07/22 06:49:23;;;;;;;7.78;3.30;;;17.00;99.90;;;;;;5023055;28;20069;-64
2023/07/22 06:51:49;;;;;;;6.82;2.60;;;17.10;99.90;;;;;;5024241;28;20030;-63
2023/07/22 06:54:15;;;;;;;5.30;3.00;;;17.20;99.90;;;;;;5014942;28;20087;-63
2023/07/22 06:56:41;;;;;;;6.63;2.80;;;17.30;99.90;;;;;;5022158;28;20033;-63
2023/07/22 06:59:06;;;;;;;6.18;2.80;;;17.50;99.90;;;;;;5007256;28;20042;-63
2023/07/22 07:01:32;;;;;;;5.03;2.88;;;17.60;99.90;;;;;;5009296;28;20044;-64
2023/07/22 07:03:58;;;;;;;5.30;2.60;;;17.60;99.90;;;;;;5007802;28;20068;-63
2023/07/22 07:06:23;;;;;;;5.53;3.03;;;17.60;99.90;;;;;;5009423;28;20338;-63
2023/07/22 07:08:49;;;;;;;9.18;2.63;;;17.70;99.90;;;;;;5015363;28;20109;-62
2023/07/22 07:11:14;;;;;;;5.53;2.40;;;17.80;99.90;;;;;;5007314;28;20113;-63
2023/07/22 07:13:40;;;;;;;8.95;2.80;;;17.80;99.90;;;;;;5021556;28;20030;-64
2023/07/22 07:16:35;;;;;;;4.20;2.38;;;17.90;99.90;;;;;;5021164;28;21048;-64
2023/07/22 07:19:01;;;;;;;5.00;2.53;;;17.90;99.90;;;;;;5004268;28;20067;-64
2023/07/22 07:21:27;;;;;;;3.72;2.50;;;18.00;99.90;;;;;;5017137;28;20506;-64
2023/07/22 07:23:54;;;;;;;6.22;2.65;;;18.10;99.90;;;;;;5019454;28;20037;-63
2023/07/22 07:26:21;;;;;;;4.53;2.53;;;18.10;99.90;;;;;;5025136;28;20091;-63
2023/07/22 07:28:48;;;;;;;7.50;2.92;;;18.10;99.90;;;;;;5014926;28;20030;-64
2023/07/22 07:31:13;;;;;;;5.57;2.67;;;18.20;99.90;;;;;;5021008;28;20033;-64
2023/07/22 07:33:39;;;;;;;7.88;2.60;;;18.20;99.90;;;;;;5015910;28;20036;-65
2023/07/22 07:36:05;;;;;;;12.70;2.40;;;18.40;99.90;;;;;;5016649;28;20069;-64
2023/07/22 07:38:31;;;;;;;8.77;2.90;;;18.50;99.90;;;;;;5024886;28;20446;-64
2023/07/22 07:40:59;;;;;;;7.50;2.90;;;18.50;99.90;;;;;;5013418;28;20042;-64
2023/07/22 07:43:26;;;;;;;6.45;3.17;;;18.60;99.90;;;;;;5014035;28;20140;-64
2023/07/22 07:46:17;;;;;;;7.72;2.83;;;18.60;99.90;;;;;;5025742;28;20506;-62
2023/07/22 07:48:48;;;;;;;6.32;2.83;;;18.60;99.90;;;;;;5024410;28;20037;-64
2023/07/22 07:51:14;;;;;;;4.63;2.83;;;18.60;99.90;;;;;;5022804;28;20029;-64
2023/07/22 07:53:41;;;;;;;6.10;2.78;;;18.80;99.90;;;;;;5016447;28;20068;-64
2023/07/22 07:56:08;;;;;;;4.28;2.75;;;18.90;99.90;;;;;;5020745;28;20042;-64
2023/07/22 07:58:34;;;;;;;5.75;2.58;;;19.00;99.90;;;;;;5025134;28;20560;-64
2023/07/22 08:00:59;;;;;;;6.18;2.67;;;19.00;99.90;;;;;;5017058;28;20037;-63
2023/07/22 08:03:25;;;;;;;5.07;2.90;;;19.10;99.90;;;;;;5017367;28;20036;-65
2023/07/22 08:05:50;;;;;;;9.32;2.30;;;19.20;99.90;;;;;;5018031;28;20036;-64
2023/07/22 08:08:16;;;;;;;6.43;2.88;;;19.20;99.90;;;;;;5015867;28;20037;-65
2023/07/22 08:10:43;;;;;;;5.43;2.95;;;19.30;99.90;;;;;;5024148;28;20037;-65
2023/07/22 08:13:08;;;;;;;6.65;2.80;;;19.30;99.90;;;;;;5017398;28;20489;-64
2023/07/22 08:15:34;;;;;;;5.78;2.40;;;19.50;99.90;;;;;;5022588;28;20045;-64
2023/07/22 08:18:00;;;;;;;9.20;2.88;;;19.60;99.90;;;;;;5016145;28;20049;-65
2023/07/22 08:20:25;;;;;;;8.55;2.40;;;19.70;99.90;;;;;;5014477;28;20033;-65
2023/07/22 08:22:51;;;;;;;5.25;2.38;;;19.90;99.90;;;;;;5010187;28;20493;-64
2023/07/22 08:25:17;;;;;;;4.72;2.40;;;20.00;99.90;;;;;;5010995;28;20754;-65
2023/07/22 08:27:42;;;;;;;7.78;2.65;;;20.20;99.90;;;;;;5005108;28;20415;-64
2023/07/22 08:30:08;;;;;;;5.85;2.65;;;20.40;99.90;;;;;;5022050;28;20026;-63
2023/07/22 08:32:34;;;;;;;6.82;2.25;;;20.40;99.90;;;;;;5020900;28;20029;-65
2023/07/22 08:35:00;;;;;;;3.97;2.05;;;20.50;99.90;;;;;;5015378;28;20084;-64
2023/07/22 08:37:26;;;;;;;3.10;2.15;;;20.60;99.90;;;;;;5011472;28;20109;-65
2023/07/22 08:39:51;;;;;;;4.95;2.13;;;20.70;99.90;;;;;;5015800;28;20065;-65
2023/07/22 08:42:19;;;;;;;5.75;2.17;;;20.70;99.90;;;;;;5011854;28;20037;-64
2023/07/22 08:44:48;;;;;;;10.48;2.33;;;20.80;99.90;;;;;;5018086;28;20030;-64
2023/07/22 08:47:17;;;;;;;6.55;2.13;;;20.80;99.90;;;;;;5015843;28;20048;-64
2023/07/22 08:49:49;;;;;;;7.53;1.98;;;20.90;99.90;;;;;;5019679;28;20042;-64
2023/07/22 08:52:15;;;;;;;7.15;2.33;;;21.00;99.90;;;;;;5009387;28;20018;-64
2023/07/22 08:54:42;;;;;;;6.03;2.45;;;21.10;99.90;;;;;;5017387;28;20026;-64
2023/07/22 08:57:10;;;;;;;8.98;2.55;;;21.10;99.90;;;;;;5011153;28;20433;-65
2023/07/22 08:59:37;;;;;;;6.55;2.05;;;21.20;99.90;;;;;;5021893;28;21233;-65
2023/07/22 09:02:03;;;;;;;4.90;2.33;;;21.30;99.90;;;;;;5022819;28;20026;-65
2023/07/22 09:04:29;;;;;;;7.70;2.58;;;21.30;99.90;;;;;;5017809;28;20370;-64
2023/07/22 09:06:56;;;;;;;4.57;2.17;;;21.40;99.90;;;;;;5009212;28;20038;-63
2023/07/22 09:09:22;;;;;;;3.00;1.88;;;21.40;99.90;;;;;;5027095;28;20075;-65
2023/07/22 09:11:49;;;;;;;3.67;1.83;;;21.30;99.90;;;;;;5009047;28;20049;-65
2023/07/22 09:14:18;;;;;;;3.10;2.00;;;21.20;98.90;;;;;;5023508;28;20029;-64
2023/07/22 09:16:44;;;;;;;2.92;1.85;;;20.80;99.40;;;;;;5028634;28;20401;-64
2023/07/22 09:19:09;;;;;;;5.60;2.33;;;20.50;99.90;;;;;;5021365;28;20104;-65
2023/07/22 09:21:38;;;;;;;8.95;2.15;;;20.70;99.90;;;;;;5010948;28;20040;-65
2023/07/22 09:24:24;;;;;;;11.00;1.98;;;21.00;99.90;;;;;;5015377;28;20047;-65
2023/07/22 09:26:50;;;;;;;3.60;2.03;;;21.60;96.50;;;;;;5009346;28;20034;-65
2023/07/22 09:29:17;;;;;;;7.82;2.00;;;21.80;96.80;;;;;;5026139;28;20648;-65
2023/07/22 09:31:52;;;;;;;4.68;2.25;;;21.90;96.80;;;;;;5013505;28;20219;-64
2023/07/22 09:34:18;;;;;;;6.47;2.30;;;21.80;94.80;;;;;;5008357;28;20018;-65
2023/07/22 09:36:57;;;;;;;6.97;2.53;;;21.40;95.50;;;;;;5023102;28;20048;-66
2023/07/22 09:39:24;;;;;;;6.30;2.30;;;21.00;96.80;;;;;;5018988;28;20390;-65
2023/07/22 09:41:50;;;;;;;4.78;2.40;;;20.90;95.70;;;;;;5016028;28;20026;-65
2023/07/22 09:44:16;;;;;;;3.08;2.03;;;21.20;96.70;;;;;;5015760;28;20037;-65
2023/07/22 09:46:41;;;;;;;6.43;2.17;;;21.40;96.00;;;;;;5010756;28;20034;-65
2023/07/22 09:49:12;;;;;;;4.15;2.13;;;21.50;94.90;;;;;;5020045;28;20033;-64
2023/07/22 09:51:39;;;;;;;2.58;1.73;;;21.40;93.90;;;;;;5026048;28;20719;-65
2023/07/22 09:54:06;;;;;;;5.28;2.13;;;21.30;93.60;;;;;;5007938;28;20501;-65
2023/07/22 09:56:44;;;;;;;4.85;2.20;;;21.60;94.90;;;;;;5009409;28;21488;-64
2023/07/22 09:59:11;;;;;;;7.60;2.30;;;21.90;93.20;;;;;;5013174;28;20030;-65
2023/07/22 10:01:39;;;;;;;5.50;2.22;;;22.10;94.20;;;;;;5008688;28;20034;-65
2023/07/22 10:04:06;;;;;;;4.03;2.20;;;22.50;94.00;;;;;;5012002;28;20045;-65
2023/07/22 10:06:34;;;;;;;5.55;2.40;;;22.40;92.70;;;;;;5020342;28;20111;-62
2023/07/22 10:09:07;;;;;;;4.32;2.30;;;22.40;92.60;;;;;;5014547;28;20083;-62
2023/07/22 10:11:34;;;;;;;4.63;2.28;;;22.60;90.40;;;;;;5016131;28;20056;-63
2023/07/22 10:14:02;;;;;;;3.13;2.15;;;22.60;90.60;;;;;;5009268;28;20462;-62
2023/07/22 10:16:29;;;;;;;4.50;2.33;;;22.60;91.90;;;;;;5008808;28;20041;-63
2023/07/22 10:18:56;;;;;;;7.63;2.10;;;22.50;90.00;;;;;;5020918;28;20049;-64
2023/07/22 10:21:28;;;;;;;7.80;2.58;;;22.30;90.50;;;;;;5012836;28;20029;-64
2023/07/22 10:23:55;;;;;;;6.57;2.53;;;22.40;90.50;;;;;;5008755;28;20045;-65
2023/07/22 10:26:20;;;;;;;4.53;2.10;;;22.50;89.10;;;;;;5021106;28;20517;-65
2023/07/22 10:28:47;;;;;;;10.98;2.45;;;22.90;89.80;;;;;;5018510;28;20055;-64
2023/07/22 10:31:19;;;;;;;3.05;2.10;;;22.90;90.50;;;;;;5007589;28;20175;-65
2023/07/22 10:33:48;;;;;;;8.25;2.63;;;22.80;89.80;;;;;;5016269;28;20030;-65
2023/07/22 10:36:16;;;;;;;4.35;2.30;;;22.70;89.30;;;;;;5007669;28;20034;-65
2023/07/22 10:38:42;;;;;;;5.93;2.22;;;22.30;89.10;;;;;;5023910;28;20254;-65
2023/07/22 10:41:18;;;;;;;3.72;2.28;;;21.90;89.40;;;;;;5007619;28;20038;-64
2023/07/22 10:43:57;;;;;;;3.10;2.17;;;21.80;90.40;;;;;;5008433;28;20060;-64
2023/07/22 10:46:43;;;;;;;8.63;2.53;;;21.90;88.50;;;;;;4995044;28;20025;-64
2023/07/22 10:49:16;;;;;;;6.38;2.30;;;21.90;91.10;;;;;;5019068;28;20037;-64
2023/07/22 10:51:49;;;;;;;3.33;2.10;;;22.00;90.20;;;;;;5024919;28;20553;-65
2023/07/22 10:54:31;;;;;;;5.30;2.42;;;21.80;90.10;;;;;;5022018;28;20406;-64
2023/07/22 10:57:02;;;;;;;4.47;2.40;;;21.70;89.70;;;;;;5019585;28;20080;-63
2023/07/22 10:59:28;;;;;;;4.13;2.03;;;21.70;89.00;;;;;;5022135;28;20038;-64
2023/07/22 11:01:53;;;;;;;4.00;2.20;;;21.80;90.50;;;;;;5014579;28;20045;-64
2023/07/22 11:04:31;;;;;;;4.30;1.95;;;22.00;90.20;;;;;;5019502;28;20447;-65
2023/07/22 11:07:04;;;;;;;7.07;1.92;;;22.10;87.40;;;;;;5011757;28;20072;-65
2023/07/22 11:09:30;;;;;;;3.25;2.30;;;22.00;87.80;;;;;;5018469;28;20057;-64
2023/07/22 11:12:11;;;;;;;6.85;1.98;;;22.20;87.30;;;;;;5019053;28;20033;-65
2023/07/22 11:14:45;;;;;;;6.32;2.38;;;22.30;87.70;;;;;;5025361;28;20060;-64
2023/07/22 11:17:11;;;;;;;4.70;2.13;;;22.40;86.30;;;;;;5018949;28;20053;-66
2023/07/22 11:19:37;;;;;;;5.65;2.42;;;22.50;87.90;;;;;;5026567;28;20088;-65
2023/07/22 11:22:04;;;;;;;4.60;2.25;;;22.60;84.60;;;;;;5017973;28;20029;-63
2023/07/22 11:24:33;;;;;;;3.25;2.22;;;22.40;85.60;;;;;;5018890;28;20041;-64
2023/07/22 11:26:59;;;;;;;3.72;2.05;;;22.20;84.90;;;;;;5011536;28;20034;-64
2023/07/22 11:29:25;;;;;;;3.38;2.10;;;22.10;86.90;;;;;;5010801;28;20113;-64
2023/07/22 11:31:51;;;;;;;6.00;2.15;;;22.60;86.90;;;;;;5021528;28;20481;-64
2023/07/22 11:34:20;;;;;;;8.20;2.28;;;23.00;86.30;;;;;;5010664;28;20243;-65
2023/07/22 11:36:46;;;;;;;6.55;2.15;;;23.40;84.00;;;;;;5016477;28;20092;-65
2023/07/22 11:39:15;;;;;;;2.67;2.17;;;23.60;82.00;;;;;;5020229;28;20053;-65
2023/07/22 11:41:42;;;;;;;3.45;2.10;;;23.30;82.70;;;;;;5020678;28;20037;-65
2023/07/22 11:44:09;;;;;;;10.00;2.22;;;23.50;84.50;;;;;;5013684;28;20021;-63
2023/07/22 11:46:36;;;;;;;4.72;2.30;;;24.00;85.00;;;;;;5018675;28;20116;-64
2023/07/22 11:49:02;;;;;;;3.00;2.10;;;24.10;81.50;;;;;;5019655;28;20038;-64
2023/07/22 11:51:28;;;;;;;3.08;2.08;;;24.00;83.90;;;;;;5011187;28;20034;-65
2023/07/22 11:53:55;;;;;;;6.05;2.33;;;24.50;81.80;;;;;;5016823;28;20034;-64
2023/07/22 11:56:22;;;;;;;3.75;2.28;;;24.80;77.90;;;;;;5010356;28;20056;-64
2023/07/22 11:58:56;;;;;;;2.90;2.10;;;25.10;77.90;;;;;;5023009;28;20500;-64
2023/07/22 12:01:22;;;;;;;3.80;2.15;;;24.90;79.90;;;;;;5018264;28;20410;-64
2023/07/22 12:03:48;;;;;;;3.80;2.10;;;24.50;78.60;;;;;;5010167;28;20040;-62
2023/07/22 12:06:15;;;;;;;5.15;2.28;;;23.80;81.40;;;;;;5020550;28;20588;-63
2023/07/22 12:08:48;;;;;;;20.13;2.58;;;23.80;86.00;;;;;;5023545;28;20034;-64
2023/07/22 12:11:22;;;;;;;3.63;2.08;;;23.90;84.00;;;;;;5020803;28;20037;-62
2023/07/22 12:14:03;;;;;;;3.50;2.40;;;23.60;80.70;;;;;;5022006;28;20046;-64
2023/07/22 12:16:29;;;;;;;5.00;2.28;;;23.40;80.70;;;;;;5028068;28;20037;-64
2023/07/22 12:18:56;;;;;;;4.60;1.90;;;23.80;81.20;;;;;;5028356;28;20060;-63
2023/07/22 12:21:24;;;;;;;4.40;2.25;;;24.00;82.20;;;;;;5023082;28;20529;-64
2023/07/22 12:23:50;;;;;;;7.40;2.50;;;24.10;80.70;;;;;;5024858;28;20103;-64
2023/07/22 12:26:15;;;;;;;4.72;2.42;;;24.00;83.60;;;;;;5023905;28;20470;-64
2023/07/22 12:28:41;;;;;;;6.32;2.50;;;24.10;79.60;;;;;;5033512;28;20079;-64
2023/07/22 12:31:09;;;;;;;4.10;2.45;;;24.20;81.70;;;;;;5032652;28;20038;-62
2023/07/22 12:33:35;;;;;;;4.20;2.13;;;24.60;81.70;;;;;;5013862;28;20737;-64
2023/07/22 12:36:00;;;;;;;5.68;2.10;;;24.60;79.20;;;;;;5026063;28;20046;-64
2023/07/22 12:38:26;;;;;;;3.65;2.40;;;24.40;78.00;;;;;;5009791;28;20025;-64
2023/07/22 12:40:52;;;;;;;4.28;2.10;;;24.70;81.70;;;;;;5026365;28;20083;-64
2023/07/22 12:43:17;;;;;;;5.65;2.30;;;25.20;80.20;;;;;;5020843;28;20636;-64
2023/07/22 12:45:43;;;;;;;3.92;2.28;;;25.80;80.30;;;;;;5023553;28;20556;-64